Time;durP1;ratioP1;P1;durP2;ratioP2;P2;SDS_P1;SDS_P2;PMS_P1;PMS_P2;Temp;Humidity;BMP_temperature;BMP_pressure;BME280_temperature;BME280_humidity;BME280_pressure;Samples;Min_cycle;Max_cycle;Signal;HPM_P1;HPM_P2
2023/11/20 00:00:12;;;;;;;0.20;0.20;;;;;;;10.03;42.48;101110.66;5014459;28;20025;-91
2023/11/20 00:02:40;;;;;;;0.20;0.20;;;;;;;9.93;42.98;101109.34;5015734;28;20030;-89
2023/11/20 00:05:05;;;;;;;0.10;0.10;;;;;;;9.87;42.42;101108.72;5015054;28;20033;-90
2023/11/20 00:07:32;;;;;;;0.20;0.20;;;;;;;9.86;42.16;101097.53;5031047;28;20112;-90
2023/11/20 00:09:57;;;;;;;0.20;0.20;;;;;;;9.98;43.29;101106.56;4998102;28;20124;-90
2023/11/20 00:12:23;;;;;;;0.20;0.20;;;;;;;9.95;43.24;101102.38;5014535;28;20026;-91
2023/11/20 00:14:48;;;;;;;0.20;0.20;;;;;;;9.91;43.60;101110.28;5014026;28;20029;-92
2023/11/20 00:17:15;;;;;;;0.10;0.10;;;;;;;9.68;43.64;101108.56;5031317;28;20037;-91
2023/11/20 00:19:41;;;;;;;0.10;0.10;;;;;;;9.46;44.46;101105.94;5014820;28;20120;-92
2023/11/20 00:22:07;;;;;;;0.10;0.10;;;;;;;9.63;44.23;101113.06;5014396;28;20497;-91
2023/11/20 00:24:32;;;;;;;0.10;0.10;;;;;;;9.60;44.03;101108.00;5030700;28;20030;-91
2023/11/20 00:26:58;;;;;;;0.20;0.20;;;;;;;9.43;44.61;101083.63;5030550;28;20088;-92
2023/11/20 00:29:24;;;;;;;0.20;0.20;;;;;;;9.46;44.65;101117.13;5014048;28;20079;-91
2023/11/20 00:31:50;;;;;;;0.20;0.20;;;;;;;9.49;44.44;101118.75;5014377;28;20061;-91
2023/11/20 00:34:16;;;;;;;0.10;0.10;;;;;;;9.49;44.00;101129.06;5014193;28;20041;-91
2023/11/20 00:36:43;;;;;;;0.10;0.10;;;;;;;9.40;44.75;101129.41;5030508;28;20498;-92
2023/11/20 00:39:08;;;;;;;0.10;0.10;;;;;;;9.33;45.26;101123.59;5030636;28;20057;-91
2023/11/20 00:41:35;;;;;;;0.20;0.20;;;;;;;9.32;44.40;101127.09;5030468;28;20513;-90
2023/11/20 00:44:02;;;;;;;0.10;0.10;;;;;;;9.37;44.23;101143.28;5014057;28;20037;-91
2023/11/20 00:46:27;;;;;;;0.20;0.20;;;;;;;9.33;44.16;101128.75;5030258;28;20045;-90
2023/11/20 00:48:53;;;;;;;0.20;0.20;;;;;;;9.39;43.32;101127.72;5031483;28;20049;-90
2023/11/20 00:51:18;;;;;;;0.20;0.20;;;;;;;9.36;44.13;101117.50;5014106;28;20476;-92
2023/11/20 00:53:44;;;;;;;0.20;0.20;;;;;;;9.31;43.52;101109.91;5030344;28;20025;-92
2023/11/20 00:56:09;;;;;;;0.20;0.20;;;;;;;9.34;42.99;101117.56;5014123;28;20028;-90
2023/11/20 00:58:35;;;;;;;0.20;0.20;;;;;;;9.44;42.83;101116.34;5030126;28;20100;-91
2023/11/20 01:01:01;;;;;;;0.20;0.20;;;;;;;9.47;42.77;101121.38;4997416;28;20058;-90
2023/11/20 01:03:27;;;;;;;0.20;0.20;;;;;;;9.53;42.61;101109.13;5030418;28;20021;-90
2023/11/20 01:05:53;;;;;;;0.20;0.20;;;;;;;9.54;42.42;101088.44;5013681;28;20029;-90
2023/11/20 01:08:18;;;;;;;0.20;0.20;;;;;;;9.73;41.73;101107.50;5030993;28;20052;-91
2023/11/20 01:10:43;;;;;;;0.10;0.10;;;;;;;9.71;41.86;101106.69;5013791;28;20032;-92
2023/11/20 01:13:09;;;;;;;0.20;0.20;;;;;;;9.74;41.43;101113.53;5029545;28;20033;-90
2023/11/20 01:15:35;;;;;;;0.20;0.20;;;;;;;9.75;42.46;101117.78;4997435;28;20117;-91
2023/11/20 01:18:00;;;;;;;0.20;0.20;;;;;;;9.78;41.92;101120.25;5014146;28;20033;-91
2023/11/20 01:20:26;;;;;;;0.20;0.20;;;;;;;9.74;41.93;101114.34;5030301;28;20033;-91
2023/11/20 01:22:51;;;;;;;0.20;0.20;;;;;;;9.77;42.26;101111.66;5033526;28;20052;-90
2023/11/20 01:25:18;;;;;;;0.20;0.20;;;;;;;9.71;42.70;101117.03;5017758;28;20487;-91
2023/11/20 01:27:44;;;;;;;0.20;0.20;;;;;;;9.65;42.88;101114.69;5034097;28;20037;-91
2023/11/20 01:30:09;;;;;;;0.20;0.20;;;;;;;9.61;42.99;101117.44;5017771;28;20032;-91
2023/11/20 01:32:35;;;;;;;0.10;0.10;;;;;;;9.55;43.21;101117.69;5034350;28;20514;-91
2023/11/20 01:35:01;;;;;;;0.15;0.15;;;;;;;9.51;43.45;101121.25;5017755;28;20022;-91
2023/11/20 01:37:26;;;;;;;0.20;0.20;;;;;;;9.47;43.75;101120.53;5017632;28;20029;-91
2023/11/20 01:39:53;;;;;;;0.20;0.20;;;;;;;9.30;43.71;101113.41;5034045;28;20041;-91
2023/11/20 01:42:19;;;;;;;0.20;0.20;;;;;;;9.19;45.34;101097.44;5017154;28;20111;-92
2023/11/20 01:44:44;;;;;;;0.20;0.20;;;;;;;9.19;45.15;101102.63;5033449;28;20538;-91
2023/11/20 01:47:11;;;;;;;0.20;0.20;;;;;;;9.11;45.78;101110.63;5017587;28;20025;-92
2023/11/20 01:49:39;;;;;;;0.10;0.10;;;;;;;9.10;45.35;101108.09;5001209;28;20472;-91
2023/11/20 01:52:05;;;;;;;0.20;0.20;;;;;;;9.04;45.69;101109.13;5017153;28;20032;-91
2023/11/20 01:54:31;;;;;;;0.10;0.10;;;;;;;9.01;45.24;101113.56;5017405;28;20033;-91
2023/11/20 01:56:57;;;;;;;0.20;0.20;;;;;;;8.84;45.47;101104.66;5016989;28;20026;-91
2023/11/20 01:59:23;;;;;;;0.20;0.20;;;;;;;8.89;45.55;101107.94;5017202;28;20041;-89
2023/11/20 02:01:48;;;;;;;0.20;0.20;;;;;;;8.87;46.20;101106.31;5017146;28;20037;-93
2023/11/20 02:04:14;;;;;;;0.10;0.10;;;;;;;8.85;46.04;101114.13;5034277;28;20032;-92
2023/11/20 02:06:39;;;;;;;0.20;0.20;;;;;;;8.85;45.98;101121.03;5016882;28;20036;-91
2023/11/20 02:09:05;;;;;;;0.20;0.20;;;;;;;8.80;46.25;101117.72;5017087;28;20026;-91
2023/11/20 02:11:30;;;;;;;0.20;0.20;;;;;;;8.69;46.56;101104.34;5033100;28;20029;-90
2023/11/20 02:13:56;;;;;;;0.20;0.20;;;;;;;8.58;47.97;101096.97;5016838;28;20127;-91
2023/11/20 02:16:21;;;;;;;0.20;0.20;;;;;;;8.58;47.81;101097.81;5016975;28;20038;-91
2023/11/20 02:18:47;;;;;;;0.10;0.10;;;;;;;8.53;47.59;101102.28;5033318;28;20025;-91
2023/11/20 02:21:13;;;;;;;0.10;0.10;;;;;;;8.45;47.44;101080.22;5034353;28;20036;-91
2023/11/20 02:23:39;;;;;;;0.20;0.20;;;;;;;8.45;48.14;101085.38;5000459;28;20024;-91
2023/11/20 02:26:30;;;;;;;0.20;0.20;;;;;;;8.32;48.97;101075.41;5032851;28;20034;-92
2023/11/20 02:29:21;;;;;;;0.20;0.20;;;;;;;8.17;49.02;101086.25;5033339;28;20487;-90
2023/11/20 02:31:46;;;;;;;0.10;0.10;;;;;;;8.11;50.34;101096.72;5033749;28;20048;-91
2023/11/20 02:34:12;;;;;;;0.10;0.10;;;;;;;8.09;50.04;101105.41;5016561;28;20029;-92
2023/11/20 02:36:37;;;;;;;0.10;0.10;;;;;;;8.04;50.67;101096.06;5000085;28;20026;-90
2023/11/20 02:39:03;;;;;;;0.10;0.10;;;;;;;7.81;51.05;101084.78;5016031;28;20029;-90
2023/11/20 02:41:29;;;;;;;0.20;0.20;;;;;;;7.86;51.47;101112.09;5033031;28;20030;-89
2023/11/20 02:43:55;;;;;;;0.20;0.20;;;;;;;7.82;51.91;101117.38;5016249;28;20052;-91
2023/11/20 02:46:21;;;;;;;0.20;0.20;;;;;;;7.71;51.58;101113.41;5016185;28;20472;-91
2023/11/20 02:48:46;;;;;;;0.20;0.20;;;;;;;7.61;51.29;101111.13;5016410;28;20025;-91
2023/11/20 02:51:12;;;;;;;0.10;0.10;;;;;;;7.64;51.31;101124.75;5033738;28;20033;-92
2023/11/20 02:53:38;;;;;;;0.10;0.10;;;;;;;7.45;52.01;101121.84;4999396;28;20052;-91
2023/11/20 02:56:04;;;;;;;0.20;0.20;;;;;;;7.50;51.81;101142.34;5016128;28;20476;-90
2023/11/20 02:58:30;;;;;;;0.10;0.10;;;;;;;7.50;52.07;101147.50;4983983;28;20029;-92
2023/11/20 03:00:56;;;;;;;0.10;0.10;;;;;;;7.55;51.96;101145.59;5016066;28;20033;-92
2023/11/20 03:03:21;;;;;;;0.20;0.20;;;;;;;7.46;51.61;101128.69;5015972;28;20095;-92
2023/11/20 03:05:47;;;;;;;0.10;0.10;;;;;;;7.44;52.58;101139.91;5032311;28;20064;-91
2023/11/20 03:08:12;;;;;;;0.20;0.20;;;;;;;7.31;52.94;101130.84;5015260;28;20533;-91
2023/11/20 03:10:41;;;;;;;0.10;0.10;;;;;;;7.39;52.43;101142.63;5032402;28;20068;-90
2023/11/20 03:13:07;;;;;;;0.20;0.20;;;;;;;7.32;52.25;101129.97;5015781;28;20095;-91
2023/11/20 03:15:33;;;;;;;0.10;0.10;;;;;;;7.35;52.14;101135.03;5033374;28;20479;-92
2023/11/20 03:17:58;;;;;;;0.20;0.20;;;;;;;7.45;52.86;101136.47;5015719;28;20056;-91
2023/11/20 03:20:23;;;;;;;0.10;0.10;;;;;;;7.53;52.45;101131.09;5032115;28;20052;-93
2023/11/20 03:22:50;;;;;;;0.10;0.10;;;;;;;7.53;52.32;101108.78;4998955;28;20487;-92
2023/11/20 03:25:15;;;;;;;0.20;0.20;;;;;;;7.54;52.23;101118.19;5015725;28;20033;-91
2023/11/20 03:27:41;;;;;;;0.10;0.10;;;;;;;7.54;52.41;101109.59;5015682;28;20029;-91
2023/11/20 03:30:09;;;;;;;0.20;0.20;;;;;;;7.32;52.33;101105.06;5015613;28;20041;-91
2023/11/20 03:32:36;;;;;;;0.20;0.20;;;;;;;7.25;52.61;101097.56;4999499;28;20116;-91
2023/11/20 03:35:05;;;;;;;0.20;0.20;;;;;;;7.27;53.44;101096.63;4999348;28;20060;-90
2023/11/20 03:37:31;;;;;;;0.20;0.20;;;;;;;7.39;52.77;101087.75;5031557;28;20551;-90
2023/11/20 03:39:56;;;;;;;0.10;0.10;;;;;;;7.37;52.84;101089.50;5031737;28;20025;-92
2023/11/20 03:42:22;;;;;;;0.10;0.10;;;;;;;7.34;53.17;101099.88;5015455;28;20025;-90
2023/11/20 03:44:48;;;;;;;0.10;0.10;;;;;;;7.38;53.04;101086.06;5031294;28;20058;-87
2023/11/20 03:47:13;;;;;;;0.10;0.10;;;;;;;7.50;54.24;101087.44;5014192;28;20037;-87
2023/11/20 03:49:39;;;;;;;0.20;0.20;;;;;;;7.50;53.23;101088.28;5014078;28;20057;-88
2023/11/20 03:52:05;;;;;;;0.17;0.17;;;;;;;7.52;53.74;101083.91;5014100;28;20025;-92
2023/11/20 03:54:31;;;;;;;0.10;0.10;;;;;;;7.57;53.03;101053.75;5015209;28;20037;-92
2023/11/20 03:56:56;;;;;;;0.20;0.20;;;;;;;7.65;52.92;101074.09;5031413;28;20442;-93
2023/11/20 03:59:22;;;;;;;0.10;0.10;;;;;;;7.72;52.71;101063.56;4998641;28;20033;-92
2023/11/20 04:01:49;;;;;;;0.20;0.20;;;;;;;8.01;51.97;101064.41;5015177;28;20542;-91
2023/11/20 04:04:15;;;;;;;0.10;0.10;;;;;;;8.22;51.93;101068.88;5015362;28;20079;-90
2023/11/20 04:06:40;;;;;;;0.20;0.20;;;;;;;8.39;51.13;101052.91;5031000;28;20033;-92
2023/11/20 04:09:06;;;;;;;0.10;0.10;;;;;;;8.60;50.96;101069.41;5014805;28;20483;-93
2023/11/20 04:11:31;;;;;;;0.10;0.10;;;;;;;8.68;50.66;101066.56;5014872;28;20029;-92
2023/11/20 04:13:57;;;;;;;0.20;0.20;;;;;;;8.72;50.81;101062.97;5014816;28;20566;-92
2023/11/20 04:16:22;;;;;;;0.20;0.20;;;;;;;8.59;50.43;101040.19;5015054;28;20045;-92
2023/11/20 04:18:48;;;;;;;0.20;0.20;;;;;;;8.56;50.33;101026.56;5030936;28;20029;-92
2023/11/20 04:21:13;;;;;;;0.20;0.20;;;;;;;8.78;50.57;101048.13;5014135;28;20029;-92
2023/11/20 04:23:39;;;;;;;0.20;0.20;;;;;;;8.79;50.71;101043.81;4998066;28;20044;-93
2023/11/20 04:26:04;;;;;;;0.10;0.10;;;;;;;8.85;50.97;101038.47;4998046;28;20029;-93
2023/11/20 04:28:31;;;;;;;0.20;0.20;;;;;;;8.83;50.22;101048.81;4998018;28;20021;-92
2023/11/20 04:30:58;;;;;;;0.20;0.20;;;;;;;8.84;50.22;101047.06;5015034;28;20057;-90
2023/11/20 04:33:25;;;;;;;0.20;0.20;;;;;;;8.90;50.14;101058.03;5015006;28;20029;-91
2023/11/20 04:35:51;;;;;;;0.20;0.20;;;;;;;8.87;50.62;101050.41;4998054;28;20029;-89
2023/11/20 04:38:16;;;;;;;0.20;0.20;;;;;;;9.00;50.93;101053.38;4998292;28;20104;-91
2023/11/20 04:40:42;;;;;;;0.20;0.20;;;;;;;8.98;50.99;101046.59;5030954;28;21204;-91
2023/11/20 04:43:07;;;;;;;0.10;0.10;;;;;;;9.08;50.55;101053.13;5005662;28;20056;-88
2023/11/20 04:45:33;;;;;;;0.20;0.20;;;;;;;8.98;50.89;101034.53;4994007;28;20084;-90
2023/11/20 04:47:58;;;;;;;0.10;0.10;;;;;;;9.05;51.26;101035.16;4994630;28;20053;-92
2023/11/20 04:50:24;;;;;;;0.10;0.10;;;;;;;9.07;51.30;101039.38;4977998;28;20030;-90
2023/11/20 04:52:50;;;;;;;0.10;0.10;;;;;;;9.16;51.21;101045.94;5010363;28;20427;-91
2023/11/20 04:55:16;;;;;;;0.20;0.20;;;;;;;9.19;51.95;101058.72;4994084;28;20056;-90
2023/11/20 04:57:43;;;;;;;0.10;0.10;;;;;;;9.29;51.89;101060.06;5010272;28;20536;-91
2023/11/20 05:00:11;;;;;;;0.10;0.10;;;;;;;9.17;52.08;101060.53;4994137;28;20396;-90
2023/11/20 05:02:36;;;;;;;0.10;0.10;;;;;;;9.27;51.76;101055.88;4994284;28;20026;-89
2023/11/20 05:05:02;;;;;;;0.10;0.10;;;;;;;9.19;51.54;101048.41;5009754;28;20033;-89
2023/11/20 05:07:27;;;;;;;0.20;0.20;;;;;;;9.22;51.59;101061.19;4977613;28;20487;-89
2023/11/20 05:09:54;;;;;;;0.13;0.13;;;;;;;9.02;52.40;101046.41;4993881;28;20476;-91
2023/11/20 05:12:20;;;;;;;0.10;0.10;;;;;;;8.94;52.28;101017.47;5004872;28;20112;-92
2023/11/20 05:14:45;;;;;;;0.20;0.20;;;;;;;8.93;52.72;101030.41;5017488;28;20100;-92
2023/11/20 05:17:11;;;;;;;0.20;0.20;;;;;;;8.95;53.02;101049.25;4995261;28;20408;-93
2023/11/20 05:19:36;;;;;;;0.10;0.10;;;;;;;8.97;53.29;101060.41;5027664;28;20033;-92
2023/11/20 05:22:02;;;;;;;0.20;0.20;;;;;;;9.01;52.91;101059.38;5010339;28;20045;-90
2023/11/20 05:24:27;;;;;;;0.20;0.20;;;;;;;9.00;52.88;101042.22;4985096;28;20030;-86
2023/11/20 05:26:53;;;;;;;0.20;0.20;;;;;;;8.96;52.27;101032.91;5010377;28;20516;-88
2023/11/20 05:29:18;;;;;;;0.10;0.10;;;;;;;9.05;52.17;101028.25;4977538;28;20168;-92
2023/11/20 05:31:44;;;;;;;0.20;0.20;;;;;;;9.18;51.32;101044.13;5010661;28;20026;-87
2023/11/20 05:34:09;;;;;;;0.10;0.10;;;;;;;9.31;51.39;101049.69;5009343;28;20034;-89
2023/11/20 05:36:35;;;;;;;0.20;0.20;;;;;;;9.35;51.49;101049.53;5006374;28;20033;-90
2023/11/20 05:39:01;;;;;;;0.20;0.20;;;;;;;9.35;51.36;101039.19;4969900;28;20026;-91
2023/11/20 05:41:26;;;;;;;0.20;0.20;;;;;;;9.36;51.17;101048.63;4994426;28;20030;-92
2023/11/20 05:43:52;;;;;;;0.10;0.10;;;;;;;9.27;51.10;101046.38;5010635;28;20038;-86
2023/11/20 05:46:17;;;;;;;0.20;0.20;;;;;;;9.31;50.98;101042.78;4991479;28;20129;-89
2023/11/20 05:48:43;;;;;;;0.20;0.20;;;;;;;9.28;50.98;101030.00;4993024;28;20030;-91
2023/11/20 05:51:08;;;;;;;0.20;0.20;;;;;;;9.33;50.89;101034.97;5026136;28;20030;-92
2023/11/20 05:53:34;;;;;;;0.20;0.20;;;;;;;9.35;51.22;101053.84;5008723;28;20507;-88
2023/11/20 05:56:00;;;;;;;0.10;0.10;;;;;;;9.21;50.97;101051.75;4993989;28;20041;-91
2023/11/20 05:58:26;;;;;;;0.20;0.20;;;;;;;9.23;50.35;101047.38;5021353;28;20191;-90
2023/11/20 06:00:52;;;;;;;0.20;0.20;;;;;;;9.43;50.48;101047.47;5009005;28;20534;-92
2023/11/20 06:03:18;;;;;;;0.20;0.20;;;;;;;9.48;49.88;101057.66;5010458;28;20026;-92
2023/11/20 06:05:45;;;;;;;0.20;0.20;;;;;;;9.51;50.75;101059.28;5009943;28;20268;-90
2023/11/20 06:08:11;;;;;;;0.10;0.10;;;;;;;9.53;49.88;101060.06;5003265;28;20081;-90
2023/11/20 06:10:36;;;;;;;0.20;0.20;;;;;;;9.62;49.63;101057.13;4991387;28;20030;-89
2023/11/20 06:13:02;;;;;;;0.20;0.20;;;;;;;9.63;49.65;101063.97;5007670;28;20606;-87
2023/11/20 06:15:28;;;;;;;0.10;0.10;;;;;;;9.63;49.42;101043.31;4995177;28;20038;-89
2023/11/20 06:17:54;;;;;;;0.10;0.10;;;;;;;9.61;49.26;101022.69;4995693;28;20461;-85
2023/11/20 06:20:20;;;;;;;0.20;0.20;;;;;;;9.82;49.66;101053.78;4986538;28;20041;-84
2023/11/20 06:22:45;;;;;;;0.20;0.20;;;;;;;9.82;49.30;101048.59;5011539;28;20045;-82
2023/11/20 06:25:12;;;;;;;0.20;0.20;;;;;;;9.89;49.16;101050.91;5012272;28;20068;-90
2023/11/20 06:27:37;;;;;;;0.10;0.10;;;;;;;9.91;49.14;101050.84;5011927;28;20407;-90
2023/11/20 06:30:03;;;;;;;0.17;0.17;;;;;;;9.94;49.14;101053.31;4979144;28;20619;-88
2023/11/20 06:32:29;;;;;;;0.10;0.10;;;;;;;9.99;49.17;101057.38;4991828;28;20030;-89
2023/11/20 06:34:55;;;;;;;0.20;0.20;;;;;;;10.13;49.97;101079.25;5017236;28;20086;-89
2023/11/20 06:37:21;;;;;;;0.20;0.20;;;;;;;10.17;49.09;101084.25;4999265;28;20062;-87
2023/11/20 06:39:47;;;;;;;0.20;0.20;;;;;;;10.26;48.76;101096.84;5022907;28;20060;-92
2023/11/20 06:42:12;;;;;;;0.20;0.20;;;;;;;10.37;48.53;101093.84;5012185;28;20411;-88
2023/11/20 06:44:38;;;;;;;0.10;0.10;;;;;;;10.36;48.54;101078.38;5010665;28;20057;-88
2023/11/20 06:47:04;;;;;;;0.20;0.20;;;;;;;10.49;48.92;101082.97;5010495;28;20030;-84
2023/11/20 06:49:29;;;;;;;0.20;0.20;;;;;;;10.69;48.65;101092.50;4999982;28;20028;-84
2023/11/20 06:51:55;;;;;;;0.13;0.13;;;;;;;10.77;48.40;101103.38;5004754;28;20484;-85
2023/11/20 06:54:20;;;;;;;0.20;0.20;;;;;;;10.85;48.03;101111.66;5002191;28;20025;-91
2023/11/20 06:56:46;;;;;;;0.20;0.20;;;;;;;10.94;48.05;101094.06;5022539;28;20372;-92
2023/11/20 06:59:11;;;;;;;0.20;0.20;;;;;;;10.90;47.61;101090.75;5010387;28;20054;-86
2023/11/20 07:01:43;;;;;;;0.10;0.10;;;;;;;11.13;47.39;101113.91;5005036;28;20033;-85
2023/11/20 07:04:09;;;;;;;0.20;0.20;;;;;;;11.18;47.42;101130.06;5003503;28;20510;-87
2023/11/20 07:06:35;;;;;;;0.10;0.10;;;;;;;11.26;47.72;101136.69;5005707;28;20075;-90
2023/11/20 07:09:08;;;;;;;0.20;0.20;;;;;;;11.39;46.83;101143.00;4979337;28;20087;-90
2023/11/20 07:11:33;;;;;;;0.10;0.10;;;;;;;11.45;46.19;101133.22;5010087;28;20499;-89
2023/11/20 07:13:59;;;;;;;0.10;0.10;;;;;;;11.66;45.97;101135.75;4994590;28;20036;-91
2023/11/20 07:16:24;;;;;;;0.10;0.10;;;;;;;11.82;44.96;101120.38;4996784;28;20054;-90
2023/11/20 07:18:50;;;;;;;0.10;0.10;;;;;;;11.98;44.25;101121.34;5013182;28;20491;-89
2023/11/20 07:21:16;;;;;;;0.20;0.20;;;;;;;11.96;43.20;101102.41;4988603;28;20045;-88
2023/11/20 07:23:41;;;;;;;0.20;0.20;;;;;;;12.06;42.94;101112.28;4993793;28;20133;-91
2023/11/20 07:26:07;;;;;;;0.20;0.20;;;;;;;11.93;42.72;101106.00;5011831;28;20037;-89
2023/11/20 07:28:33;;;;;;;0.10;0.10;;;;;;;12.10;42.37;101097.44;5001084;28;20104;-89
2023/11/20 07:30:59;;;;;;;0.10;0.10;;;;;;;12.24;41.48;101100.19;5025781;28;20067;-86
2023/11/20 07:33:24;;;;;;;0.20;0.20;;;;;;;12.29;41.83;101095.63;5031830;28;20395;-90
2023/11/20 07:35:51;;;;;;;0.20;0.20;;;;;;;12.44;41.36;101104.41;5028010;28;20043;-91
2023/11/20 07:38:18;;;;;;;0.10;0.10;;;;;;;12.58;41.09;101107.16;4990835;28;20040;-88
2023/11/20 07:40:45;;;;;;;0.20;0.20;;;;;;;12.60;41.17;101100.16;5005635;28;20088;-92
2023/11/20 07:43:11;;;;;;;0.10;0.10;;;;;;;12.70;40.96;101110.94;5001721;28;20064;-89
2023/11/20 07:45:36;;;;;;;0.20;0.20;;;;;;;12.77;40.49;101114.03;5003246;28;20084;-89
2023/11/20 07:48:04;;;;;;;0.20;0.20;;;;;;;12.90;40.86;101115.94;4993542;28;20060;-88
2023/11/20 07:50:29;;;;;;;0.20;0.20;;;;;;;12.89;40.32;101116.88;5011174;28;20033;-91
2023/11/20 07:52:55;;;;;;;0.10;0.10;;;;;;;13.10;39.67;101114.09;5010310;28;20056;-90
2023/11/20 07:55:20;;;;;;;0.20;0.20;;;;;;;13.11;39.57;101082.00;4982103;28;20095;-87
2023/11/20 07:57:46;;;;;;;0.20;0.20;;;;;;;13.41;39.58;101119.41;5002310;28;20051;-89
2023/11/20 08:00:13;;;;;;;0.10;0.10;;;;;;;13.41;39.82;101113.34;4990934;28;20551;-91
2023/11/20 08:02:39;;;;;;;0.20;0.20;;;;;;;13.55;39.37;101115.22;4992897;28;20423;-88
2023/11/20 08:05:07;;;;;;;0.10;0.10;;;;;;;13.67;38.58;101109.38;5009247;28;20041;-85
2023/11/20 08:07:34;;;;;;;0.20;0.20;;;;;;;13.86;38.56;101114.38;4990025;28;20026;-90
2023/11/20 08:09:59;;;;;;;0.20;0.20;;;;;;;13.91;38.34;101110.63;5016688;28;20593;-91
2023/11/20 08:12:24;;;;;;;0.20;0.20;;;;;;;14.14;39.05;101113.72;5025356;28;20105;-89
2023/11/20 08:14:50;;;;;;;0.20;0.20;;;;;;;14.16;38.40;101122.25;4955981;28;20044;-86
2023/11/20 08:17:15;;;;;;;0.20;0.20;;;;;;;14.06;38.45;101107.19;4991599;28;20531;-87
2023/11/20 08:19:41;;;;;;;0.10;0.10;;;;;;;14.16;37.93;101112.72;5012688;28;20060;-87
2023/11/20 08:22:06;;;;;;;0.20;0.20;;;;;;;14.24;38.72;101112.25;5014755;28;20064;-90
2023/11/20 08:24:32;;;;;;;0.10;0.10;;;;;;;14.28;37.77;101114.63;5007183;28;20037;-87
2023/11/20 08:26:59;;;;;;;0.10;0.10;;;;;;;14.27;37.98;101119.91;5013487;28;20034;-86
2023/11/20 08:29:26;;;;;;;0.20;0.20;;;;;;;14.15;37.26;101121.41;5009748;28;20064;-88
2023/11/20 08:31:51;;;;;;;0.20;0.20;;;;;;;14.05;36.97;101126.28;5005275;28;20061;-86
2023/11/20 08:34:17;;;;;;;0.10;0.10;;;;;;;13.98;37.08;101122.38;5017276;28;20064;-85
2023/11/20 08:36:43;;;;;;;0.20;0.20;;;;;;;13.87;37.58;101132.53;5004217;28;20101;-84
2023/11/20 08:39:12;;;;;;;0.20;0.20;;;;;;;13.97;38.04;101127.66;4995351;28;20057;-92
2023/11/20 08:41:40;;;;;;;0.20;0.20;;;;;;;14.11;37.44;101116.50;5012081;28;20029;-87
2023/11/20 08:44:09;;;;;;;0.10;0.10;;;;;;;14.15;37.55;101125.78;5023918;28;20029;-92
2023/11/20 08:46:35;;;;;;;0.20;0.20;;;;;;;14.20;37.32;101118.59;4984749;28;20053;-90
2023/11/20 08:49:00;;;;;;;0.20;0.20;;;;;;;14.27;37.40;101114.72;4998540;28;20030;-93
2023/11/20 08:51:27;;;;;;;0.15;0.15;;;;;;;14.18;38.18;101094.41;4987379;28;20026;-91
2023/11/20 08:53:53;;;;;;;0.20;0.20;;;;;;;14.20;38.07;101108.16;5012882;28;20055;-89
2023/11/20 08:56:19;;;;;;;0.10;0.10;;;;;;;14.41;37.47;101106.94;4999274;28;20618;-91
2023/11/20 08:58:45;;;;;;;0.20;0.20;;;;;;;14.58;37.77;101093.84;4991678;28;20041;-90
2023/11/20 09:01:11;;;;;;;0.20;0.20;;;;;;;14.70;37.94;101083.63;5012072;28;20038;-90
2023/11/20 09:03:36;;;;;;;0.10;0.10;;;;;;;14.75;37.34;101073.75;4977952;28;20081;-90
2023/11/20 09:06:03;;;;;;;0.10;0.10;;;;;;;14.67;37.58;101081.22;5006953;28;20038;-87
2023/11/20 09:08:28;;;;;;;0.10;0.10;;;;;;;14.81;37.85;101078.63;4993208;28;20045;-92
2023/11/20 09:10:54;;;;;;;0.10;0.10;;;;;;;14.75;37.66;101069.41;4993140;28;20022;-89
2023/11/20 09:13:20;;;;;;;0.10;0.10;;;;;;;14.85;37.31;101059.28;5019502;28;20037;-91
2023/11/20 09:15:45;;;;;;;0.13;0.13;;;;;;;14.91;38.06;101058.91;5002950;28;20026;-88
2023/11/20 09:18:12;;;;;;;0.20;0.20;;;;;;;14.75;37.48;101064.22;5025123;28;20057;-85
2023/11/20 09:20:38;;;;;;;0.10;0.10;;;;;;;14.86;37.16;101071.38;5015654;28;20026;-92
2023/11/20 09:23:03;;;;;;;0.20;0.20;;;;;;;14.85;37.42;101060.13;4971780;28;20038;-84
2023/11/20 09:25:29;;;;;;;0.20;0.20;;;;;;;14.82;37.43;101062.91;5001637;28;20483;-88
2023/11/20 09:27:56;;;;;;;0.20;0.20;;;;;;;14.73;37.44;101050.41;5009997;28;20068;-88
2023/11/20 09:30:22;;;;;;;0.10;0.10;;;;;;;14.87;37.58;101058.25;4983838;28;20069;-93
2023/11/20 09:32:47;;;;;;;0.20;0.20;;;;;;;14.84;37.66;101052.38;4985919;28;20078;-91
2023/11/20 09:35:15;;;;;;;0.10;0.10;;;;;;;14.60;38.12;101050.31;4983977;28;20046;-88
2023/11/20 09:37:42;;;;;;;0.10;0.10;;;;;;;14.73;37.78;101049.59;4996189;28;20032;-86
2023/11/20 09:40:09;;;;;;;0.10;0.10;;;;;;;14.80;37.30;101056.13;5009632;28;20057;-87
2023/11/20 09:42:35;;;;;;;0.10;0.10;;;;;;;14.93;37.64;101052.66;4997979;28;20064;-91
2023/11/20 09:45:01;;;;;;;0.20;0.20;;;;;;;14.90;37.21;101050.25;4990675;28;20078;-88
2023/11/20 09:47:29;;;;;;;0.20;0.20;;;;;;;14.92;37.13;101044.94;5000451;28;20472;-91
2023/11/20 09:49:56;;;;;;;0.10;0.10;;;;;;;14.93;37.80;101046.63;4976238;28;20112;-87
2023/11/20 09:52:23;;;;;;;0.10;0.10;;;;;;;15.05;37.00;101032.88;4972683;28;20074;-85
2023/11/20 09:54:49;;;;;;;0.10;0.10;;;;;;;15.15;37.14;101041.81;4983081;28;20045;-87
2023/11/20 09:57:14;;;;;;;0.10;0.10;;;;;;;15.29;37.07;101017.47;4983442;28;20427;-89
2023/11/20 09:59:41;;;;;;;0.20;0.20;;;;;;;15.34;36.43;101012.84;4976860;28;20085;-85
2023/11/20 10:02:06;;;;;;;0.20;0.20;;;;;;;15.53;36.79;101020.31;4992402;28;20053;-90
2023/11/20 10:04:33;;;;;;;0.10;0.10;;;;;;;15.74;37.09;101008.56;4952761;28;20030;-89
2023/11/20 10:07:02;;;;;;;0.10;0.10;;;;;;;15.86;36.43;101000.88;4998430;28;20054;-83
2023/11/20 10:09:27;;;;;;;0.20;0.20;;;;;;;15.85;37.06;100994.00;4973897;28;20042;-90
2023/11/20 10:11:53;;;;;;;0.20;0.20;;;;;;;15.96;36.80;100991.50;4972882;28;20034;-91
2023/11/20 10:14:22;;;;;;;0.10;0.10;;;;;;;16.00;36.83;100978.16;4950292;28;20810;-89
2023/11/20 10:16:47;;;;;;;0.10;0.10;;;;;;;16.29;36.92;100999.69;4947436;28;20037;-92
2023/11/20 10:19:16;;;;;;;0.10;0.10;;;;;;;16.42;36.32;100988.44;4967788;28;20038;-89
2023/11/20 10:21:41;;;;;;;0.20;0.20;;;;;;;16.49;35.88;100989.69;4960046;28;20030;-90
2023/11/20 10:24:09;;;;;;;0.10;0.10;;;;;;;16.40;35.94;100978.09;4973698;28;20038;-88
2023/11/20 10:26:34;;;;;;;0.20;0.20;;;;;;;16.45;36.11;100976.03;4975025;28;20158;-86
2023/11/20 10:29:00;;;;;;;0.20;0.20;;;;;;;16.51;35.27;100978.19;4984309;28;20068;-91
2023/11/20 10:31:31;;;;;;;0.17;0.17;;;;;;;16.37;35.41;100970.47;4972251;28;20030;-94
2023/11/20 10:34:09;;;;;;;0.20;0.20;;;;;;;16.33;35.39;100958.59;4959165;28;20034;-93
2023/11/20 10:36:36;;;;;;;0.10;0.10;;;;;;;16.48;35.95;100959.31;4976263;28;20038;-89
2023/11/20 10:39:02;;;;;;;0.20;0.20;;;;;;;16.47;35.08;100948.03;4975438;28;20089;-89
2023/11/20 10:41:29;;;;;;;0.10;0.10;;;;;;;16.66;35.15;100944.16;4959955;28;20027;-87
2023/11/20 10:43:55;;;;;;;0.20;0.20;;;;;;;16.57;35.31;100961.28;4976911;28;20026;-90
2023/11/20 10:46:23;;;;;;;0.10;0.10;;;;;;;16.58;36.05;100953.34;4991302;28;20522;-87
2023/11/20 10:48:49;;;;;;;0.15;0.15;;;;;;;16.63;35.36;100955.66;5011821;28;20542;-93
2023/11/20 10:51:16;;;;;;;0.10;0.10;;;;;;;16.57;35.92;100927.34;4996337;28;20030;-90
2023/11/20 10:53:43;;;;;;;0.10;0.10;;;;;;;16.77;35.76;100949.50;4996312;28;20033;-89
2023/11/20 10:56:11;;;;;;;0.20;0.20;;;;;;;16.83;35.56;100934.22;4993330;28;20034;-90
2023/11/20 10:58:38;;;;;;;0.10;0.10;;;;;;;16.88;35.85;100934.72;4988326;28;20117;-88
2023/11/20 11:01:04;;;;;;;0.17;0.17;;;;;;;17.06;35.75;100942.22;4973300;28;20080;-93
2023/11/20 11:03:30;;;;;;;0.20;0.20;;;;;;;17.01;35.11;100916.44;4995388;28;20500;-91
2023/11/20 11:06:09;;;;;;;0.17;0.17;;;;;;;17.13;35.52;100917.31;4977457;28;20033;-85
2023/11/20 11:08:36;;;;;;;0.10;0.10;;;;;;;17.00;35.54;100913.91;5012679;28;20475;-88
2023/11/20 11:11:03;;;;;;;0.20;0.20;;;;;;;17.19;35.92;100911.63;4993953;28;20155;-84
2023/11/20 11:13:32;;;;;;;0.10;0.10;;;;;;;17.10;35.49;100917.53;4994407;28;20056;-86
2023/11/20 11:15:58;;;;;;;0.20;0.20;;;;;;;16.99;35.76;100900.00;4984837;28;20049;-85
2023/11/20 11:18:27;;;;;;;0.10;0.10;;;;;;;17.11;35.23;100893.91;4993014;28;20065;-88
2023/11/20 11:20:54;;;;;;;0.20;0.20;;;;;;;17.23;36.12;100927.94;4984050;28;20049;-92
2023/11/20 11:23:26;;;;;;;0.10;0.10;;;;;;;17.27;35.22;100925.00;5019145;28;20765;-92